sensor_id;sensor_type;location;lat;lon;timestamp;pressure;altitude;pressure_sealevel;temperature;humidity
25130;BME280;13308;50.860;13.664;2023-11-18T07:03:58;97474.66;;;3.62;100.00
25130;BME280;13308;50.860;13.664;2023-11-18T07:06:24;97477.03;;;3.63;100.00
25130;BME280;13308;50.860;13.664;2023-11-18T07:08:52;97478.47;;;3.57;100.00
25130;BME280;13308;50.860;13.664;2023-11-18T07:11:19;97483.28;;;3.64;100.00
25130;BME280;13308;50.860;13.664;2023-11-18T07:13:47;97473.69;;;3.70;100.00
25130;BME280;13308;50.860;13.664;2023-11-18T07:16:13;97482.56;;;3.67;100.00
25130;BME280;13308;50.860;13.664;2023-11-18T07:18:40;97487.00;;;3.56;100.00
25130;BME280;13308;50.860;13.664;2023-11-18T07:21:05;97479.09;;;3.51;100.00
25130;BME280;13308;50.860;13.664;2023-11-18T07:23:31;97479.09;;;3.51;100.00
25130;BME280;13308;50.860;13.664;2023-11-18T07:25:57;97479.53;;;3.53;100.00
25130;BME280;13308;50.860;13.664;2023-11-18T07:28:23;97477.97;;;3.52;100.00
25130;BME280;13308;50.860;13.664;2023-11-18T07:30:49;97476.91;;;3.56;100.00
25130;BME280;13308;50.860;13.664;2023-11-18T07:33:15;97494.84;;;3.57;100.00
25130;BME280;13308;50.860;13.664;2023-11-18T07:35:42;97495.63;;;3.58;100.00
25130;BME280;13308;50.860;13.664;2023-11-18T07:38:07;97488.22;;;3.58;100.00
25130;BME280;13308;50.860;13.664;2023-11-18T07:40:33;97494.91;;;3.61;100.00
25130;BME280;13308;50.860;13.664;2023-11-18T07:42:59;97501.25;;;3.65;100.00
25130;BME280;13308;50.860;13.664;2023-11-18T07:45:27;97494.47;;;3.59;100.00
25130;BME280;13308;50.860;13.664;2023-11-18T07:47:54;97501.94;;;3.62;100.00
25130;BME280;13308;50.860;13.664;2023-11-18T07:50:20;97499.00;;;3.70;100.00
25130;BME280;13308;50.860;13.664;2023-11-18T07:52:50;97496.72;;;3.72;100.00
25130;BME280;13308;50.860;13.664;2023-11-18T07:55:16;97503.38;;;3.75;100.00
25130;BME280;13308;50.860;13.664;2023-11-18T07:57:42;97505.63;;;3.69;100.00
25130;BME280;13308;50.860;13.664;2023-11-18T08:00:08;97517.03;;;3.75;100.00
25130;BME280;13308;50.860;13.664;2023-11-18T08:02:39;97521.78;;;3.78;100.00
25130;BME280;13308;50.860;13.664;2023-11-18T08:05:05;97518.97;;;3.74;100.00
25130;BME280;13308;50.860;13.664;2023-11-18T08:07:34;97520.97;;;3.77;100.00
25130;BME280;13308;50.860;13.664;2023-11-18T08:10:02;97525.00;;;3.83;100.00
25130;BME280;13308;50.860;13.664;2023-11-18T08:12:30;97527.84;;;3.87;100.00
25130;BME280;13308;50.860;13.664;2023-11-18T08:14:56;97521.22;;;3.88;100.00
25130;BME280;13308;50.860;13.664;2023-11-18T08:17:22;97536.03;;;3.87;100.00
25130;BME280;13308;50.860;13.664;2023-11-18T08:19:48;97528.97;;;3.86;100.00
25130;BME280;13308;50.860;13.664;2023-11-18T08:22:13;97531.25;;;3.84;100.00
25130;BME280;13308;50.860;13.664;2023-11-18T08:24:38;97528.81;;;3.79;100.00
25130;BME280;13308;50.860;13.664;2023-11-18T08:27:04;97529.75;;;3.86;100.00
25130;BME280;13308;50.860;13.664;2023-11-18T08:29:32;97534.00;;;3.84;100.00
25130;BME280;13308;50.860;13.664;2023-11-18T08:31:58;97533.72;;;3.89;100.00
25130;BME280;13308;50.860;13.664;2023-11-18T08:34:23;97539.53;;;3.87;100.00
25130;BME280;13308;50.860;13.664;2023-11-18T08:36:51;97541.03;;;3.85;100.00
25130;BME280;13308;50.860;13.664;2023-11-18T08:39:17;97550.97;;;3.93;100.00
25130;BME280;13308;50.860;13.664;2023-11-18T08:41:45;97553.38;;;3.98;100.00
25130;BME280;13308;50.860;13.664;2023-11-18T08:44:11;97558.84;;;3.98;100.00
25130;BME280;13308;50.860;13.664;2023-11-18T08:46:38;97561.16;;;3.96;100.00
25130;BME280;13308;50.860;13.664;2023-11-18T08:49:04;97564.81;;;4.03;100.00
25130;BME280;13308;50.860;13.664;2023-11-18T08:51:36;97567.78;;;4.14;100.00
25130;BME280;13308;50.860;13.664;2023-11-18T08:54:02;97565.53;;;4.19;100.00
25130;BME280;13308;50.860;13.664;2023-11-18T08:56:42;97577.31;;;4.23;100.00
25130;BME280;13308;50.860;13.664;2023-11-18T08:59:09;97580.47;;;4.25;100.00
25130;BME280;13308;50.860;13.664;2023-11-18T09:01:34;97576.25;;;4.28;100.00
25130;BME280;13308;50.860;13.664;2023-11-18T09:04:00;97574.38;;;4.32;100.00
25130;BME280;13308;50.860;13.664;2023-11-18T09:06:27;97562.75;;;4.35;100.00
25130;BME280;13308;50.860;13.664;2023-11-18T09:08:53;97565.19;;;4.40;100.00
25130;BME280;13308;50.860;13.664;2023-11-18T09:11:21;97568.06;;;4.47;100.00
25130;BME280;13308;50.860;13.664;2023-11-18T09:13:48;97568.84;;;4.47;100.00
25130;BME280;13308;50.860;13.664;2023-11-18T09:16:22;97570.59;;;4.55;100.00
25130;BME280;13308;50.860;13.664;2023-11-18T09:18:49;97574.91;;;4.56;100.00
25130;BME280;13308;50.860;13.664;2023-11-18T09:21:14;97591.63;;;4.55;100.00
25130;BME280;13308;50.860;13.664;2023-11-18T09:23:41;97590.63;;;4.44;100.00
25130;BME280;13308;50.860;13.664;2023-11-18T09:26:08;97592.56;;;4.43;100.00
25130;BME280;13308;50.860;13.664;2023-11-18T09:28:34;97584.00;;;4.45;100.00
25130;BME280;13308;50.860;13.664;2023-11-18T09:31:03;97592.47;;;4.21;100.00
25130;BME280;13308;50.860;13.664;2023-11-18T09:33:31;97591.72;;;4.20;100.00
25130;BME280;13308;50.860;13.664;2023-11-18T09:36:00;97578.13;;;4.24;100.00
25130;BME280;13308;50.860;13.664;2023-11-18T09:40:53;97581.16;;;4.38;100.00
25130;BME280;13308;50.860;13.664;2023-11-18T09:43:20;97570.06;;;4.50;100.00
25130;BME280;13308;50.860;13.664;2023-11-18T09:45:55;97585.53;;;4.42;100.00
25130;BME280;13308;50.860;13.664;2023-11-18T09:48:21;97591.06;;;4.46;100.00
25130;BME280;13308;50.860;13.664;2023-11-18T09:50:51;97578.69;;;4.52;100.00
25130;BME280;13308;50.860;13.664;2023-11-18T09:53:18;97581.06;;;4.53;100.00
25130;BME280;13308;50.860;13.664;2023-11-18T09:55:59;97581.13;;;4.57;100.00
25130;BME280;13308;50.860;13.664;2023-11-18T09:58:37;97585.09;;;4.59;100.00
25130;BME280;13308;50.860;13.664;2023-11-18T10:01:06;97581.13;;;4.57;100.00
25130;BME280;13308;50.860;13.664;2023-11-18T10:03:32;97587.88;;;4.63;100.00
25130;BME280;13308;50.860;13.664;2023-11-18T10:06:02;97593.19;;;4.75;100.00
25130;BME280;13308;50.860;13.664;2023-11-18T10:08:31;97593.63;;;4.77;100.00
25130;BME280;13308;50.860;13.664;2023-11-18T10:10:56;97588.00;;;4.89;100.00
25130;BME280;13308;50.860;13.664;2023-11-18T10:13:31;97580.75;;;5.00;100.00
25130;BME280;13308;50.860;13.664;2023-11-18T10:16:00;97576.56;;;5.06;100.00
25130;BME280;13308;50.860;13.664;2023-11-18T10:18:27;97579.00;;;5.11;100.00
25130;BME280;13308;50.860;13.664;2023-11-18T10:20:53;97575.31;;;5.22;100.00
25130;BME280;13308;50.860;13.664;2023-11-18T10:23:20;97584.81;;;5.28;100.00
25130;BME280;13308;50.860;13.664;2023-11-18T10:28:27;97584.63;;;5.18;100.00
25130;BME280;13308;50.860;13.664;2023-11-18T10:30:56;97592.31;;;5.12;100.00
25130;BME280;13308;50.860;13.664;2023-11-18T10:33:24;97586.22;;;5.00;100.00
25130;BME280;13308;50.860;13.664;2023-11-18T10:35:56;97587.84;;;4.82;100.00
25130;BME280;13308;50.860;13.664;2023-11-18T10:38:22;97588.09;;;4.73;100.00
25130;BME280;13308;50.860;13.664;2023-11-18T10:40:58;97592.34;;;4.71;100.00
25130;BME280;13308;50.860;13.664;2023-11-18T10:43:24;97587.59;;;4.68;100.00
25130;BME280;13308;50.860;13.664;2023-11-18T10:46:04;97584.31;;;4.59;100.00
25130;BME280;13308;50.860;13.664;2023-11-18T10:48:30;97579.25;;;4.61;100.00
25130;BME280;13308;50.860;13.664;2023-11-18T10:50:55;97577.25;;;4.58;100.00
25130;BME280;13308;50.860;13.664;2023-11-18T10:53:24;97584.38;;;4.62;100.00
25130;BME280;13308;50.860;13.664;2023-11-18T10:55:51;97578.47;;;4.60;100.00
25130;BME280;13308;50.860;13.664;2023-11-18T10:58:17;97576.66;;;4.68;100.00
25130;BME280;13308;50.860;13.664;2023-11-18T11:00:49;97561.91;;;4.72;100.00
25130;BME280;13308;50.860;13.664;2023-11-18T11:03:16;97556.97;;;4.78;100.00
25130;BME280;13308;50.860;13.664;2023-11-18T11:05:43;97560.97;;;4.84;100.00
25130;BME280;13308;50.860;13.664;2023-11-18T11:08:11;97565.09;;;4.97;100.00
25130;BME280;13308;50.860;13.664;2023-11-18T11:10:43;97568.03;;;5.07;100.00
25130;BME280;13308;50.860;13.664;2023-11-18T11:13:09;97568.31;;;5.02;100.00
25130;BME280;13308;50.860;13.664;2023-11-18T11:15:41;97575.31;;;5.00;100.00
25130;BME280;13308;50.860;13.664;2023-11-18T11:18:08;97570.34;;;5.05;100.00
25130;BME280;13308;50.860;13.664;2023-11-18T11:20:42;97573.97;;;4.90;100.00
25130;BME280;13308;50.860;13.664;2023-11-18T11:23:21;97575.19;;;4.93;100.00
25130;BME280;13308;50.860;13.664;2023-11-18T11:26:23;97587.56;;;4.87;100.00
25130;BME280;13308;50.860;13.664;2023-11-18T11:29:18;97592.31;;;4.90;100.00
25130;BME280;13308;50.860;13.664;2023-11-18T11:31:50;97592.09;;;4.98;100.00
25130;BME280;13308;50.860;13.664;2023-11-18T11:34:22;97594.19;;;4.86;100.00
25130;BME280;13308;50.860;13.664;2023-11-18T11:36:51;97581.63;;;5.04;100.00
25130;BME280;13308;50.860;13.664;2023-11-18T11:39:18;97575.94;;;5.12;100.00
25130;BME280;13308;50.860;13.664;2023-11-18T11:41:52;97572.28;;;5.27;100.00
25130;BME280;13308;50.860;13.664;2023-11-18T11:44:20;97571.72;;;5.41;100.00
25130;BME280;13308;50.860;13.664;2023-11-18T11:46:49;97572.09;;;6.80;100.00
25130;BME280;13308;50.860;13.664;2023-11-18T11:49:20;97568.75;;;7.40;98.55
25130;BME280;13308;50.860;13.664;2023-11-18T11:51:48;97564.16;;;7.08;99.33
25130;BME280;13308;50.860;13.664;2023-11-18T11:54:21;97561.81;;;6.70;100.00
25130;BME280;13308;50.860;13.664;2023-11-18T11:56:49;97549.69;;;6.38;100.00
25130;BME280;13308;50.860;13.664;2023-11-18T12:02:20;97552.56;;;7.75;98.29
25130;BME280;13308;50.860;13.664;2023-11-18T12:04:50;97555.41;;;8.57;93.78
25130;BME280;13308;50.860;13.664;2023-11-18T12:07:20;97554.00;;;9.22;87.85
25130;BME280;13308;50.860;13.664;2023-11-18T12:09:51;97547.66;;;10.20;84.91
25130;BME280;13308;50.860;13.664;2023-11-18T12:12:22;97550.78;;;10.36;81.26
25130;BME280;13308;50.860;13.664;2023-11-18T12:14:53;97537.28;;;10.62;81.35
25130;BME280;13308;50.860;13.664;2023-11-18T12:17:22;97542.09;;;10.37;77.63
25130;BME280;13308;50.860;13.664;2023-11-18T12:19:48;97532.78;;;9.79;82.34
25130;BME280;13308;50.860;13.664;2023-11-18T12:22:17;97542.22;;;9.60;80.97
25130;BME280;13308;50.860;13.664;2023-11-18T12:35:22;97531.47;;;8.61;82.09
25130;BME280;13308;50.860;13.664;2023-11-18T12:43:07;97509.78;;;7.71;85.69
25130;BME280;13308;50.860;13.664;2023-11-18T12:45:43;97504.41;;;7.34;86.72
25130;BME280;13308;50.860;13.664;2023-11-18T12:48:13;97512.81;;;7.05;85.59
25130;BME280;13308;50.860;13.664;2023-11-18T12:50:42;97509.00;;;6.73;86.21
25130;BME280;13308;50.860;13.664;2023-11-18T12:53:11;97497.06;;;6.55;86.88
25130;BME280;13308;50.860;13.664;2023-11-18T12:55:40;97491.94;;;6.20;87.56
25130;BME280;13308;50.860;13.664;2023-11-18T12:58:06;97486.25;;;6.03;88.73
25130;BME280;13308;50.860;13.664;2023-11-18T13:00:32;97469.91;;;6.10;90.08
25130;BME280;13308;50.860;13.664;2023-11-18T13:03:00;97466.78;;;6.08;93.24
25130;BME280;13308;50.860;13.664;2023-11-18T13:05:25;97474.38;;;6.25;95.50
25130;BME280;13308;50.860;13.664;2023-11-18T13:07:56;97465.25;;;6.47;99.15
25130;BME280;13308;50.860;13.664;2023-11-18T13:10:23;97472.25;;;6.44;99.89
25130;BME280;13308;50.860;13.664;2023-11-18T13:12:49;97470.72;;;6.47;100.00
25130;BME280;13308;50.860;13.664;2023-11-18T13:15:16;97481.41;;;6.59;99.44
25130;BME280;13308;50.860;13.664;2023-11-18T13:18:04;97481.00;;;6.57;100.00
25130;BME280;13308;50.860;13.664;2023-11-18T13:20:34;97483.41;;;6.62;100.00
25130;BME280;13308;50.860;13.664;2023-11-18T13:23:04;97472.38;;;6.55;100.00
25130;BME280;13308;50.860;13.664;2023-11-18T13:25:35;97472.31;;;6.51;100.00
25130;BME280;13308;50.860;13.664;2023-11-18T13:28:03;97463.63;;;6.42;100.00
25130;BME280;13308;50.860;13.664;2023-11-18T13:30:30;97462.69;;;6.28;100.00
25130;BME280;13308;50.860;13.664;2023-11-18T13:32:55;97470.41;;;6.19;100.00
25130;BME280;13308;50.860;13.664;2023-11-18T13:35:22;97471.00;;;6.02;100.00
25130;BME280;13308;50.860;13.664;2023-11-18T13:37:49;97466.91;;;5.89;100.00
25130;BME280;13308;50.860;13.664;2023-11-18T13:40:15;97478.59;;;5.86;100.00
25130;BME280;13308;50.860;13.664;2023-11-18T13:42:43;97492.69;;;5.88;100.00
25130;BME280;13308;50.860;13.664;2023-11-18T13:45:12;97480.78;;;5.77;100.00
25130;BME280;13308;50.860;13.664;2023-11-18T13:47:47;97488.16;;;5.99;100.00
25130;BME280;13308;50.860;13.664;2023-11-18T13:50:13;97485.25;;;6.18;100.00
25130;BME280;13308;50.860;13.664;2023-11-18T13:52:39;97484.25;;;6.00;100.00
25130;BME280;13308;50.860;13.664;2023-11-18T13:55:06;97484.03;;;5.82;100.00
25130;BME280;13308;50.860;13.664;2023-11-18T13:57:32;97488.59;;;5.75;100.00
25130;BME280;13308;50.860;13.664;2023-11-18T13:59:58;97481.50;;;5.70;100.00
25130;BME280;13308;50.860;13.664;2023-11-18T14:02:24;97495.75;;;5.57;100.00
25130;BME280;13308;50.860;13.664;2023-11-18T14:04:50;97487.56;;;5.57;100.00
25130;BME280;13308;50.860;13.664;2023-11-18T14:07:15;97475.81;;;5.56;100.00
25130;BME280;13308;50.860;13.664;2023-11-18T14:09:44;97479.81;;;5.62;100.00
25130;BME280;13308;50.860;13.664;2023-11-18T14:12:11;97470.41;;;5.60;100.00
25130;BME280;13308;50.860;13.664;2023-11-18T14:14:37;97472.72;;;5.58;100.00
25130;BME280;13308;50.860;13.664;2023-11-18T14:17:04;97476.72;;;5.64;100.00
25130;BME280;13308;50.860;13.664;2023-11-18T14:19:31;97487.06;;;5.77;100.00
25130;BME280;13308;50.860;13.664;2023-11-18T14:21:57;97479.22;;;5.76;100.00
25130;BME280;13308;50.860;13.664;2023-11-18T14:24:23;97470.59;;;5.74;100.00
25130;BME280;13308;50.860;13.664;2023-11-18T14:26:52;97475.03;;;5.56;100.00
25130;BME280;13308;50.860;13.664;2023-11-18T14:29:18;97468.63;;;5.45;100.00
25130;BME280;13308;50.860;13.664;2023-11-18T14:31:44;97471.25;;;5.38;100.00
25130;BME280;13308;50.860;13.664;2023-11-18T14:34:10;97458.09;;;5.21;100.00
25130;BME280;13308;50.860;13.664;2023-11-18T14:36:36;97454.16;;;5.18;100.00
25130;BME280;13308;50.860;13.664;2023-11-18T14:39:02;97445.44;;;5.09;100.00
25130;BME280;13308;50.860;13.664;2023-11-18T14:41:28;97447.69;;;5.04;100.00
25130;BME280;13308;50.860;13.664;2023-11-18T14:43:56;97445.91;;;4.89;100.00
25130;BME280;13308;50.860;13.664;2023-11-18T14:46:22;97443.31;;;4.73;100.00
25130;BME280;13308;50.860;13.664;2023-11-18T14:48:48;97443.00;;;4.56;100.00
25130;BME280;13308;50.860;13.664;2023-11-18T14:51:13;97445.47;;;4.42;100.00
25130;BME280;13308;50.860;13.664;2023-11-18T14:53:39;97437.75;;;4.25;100.00
25130;BME280;13308;50.860;13.664;2023-11-18T14:56:04;97436.63;;;4.07;100.00
25130;BME280;13308;50.860;13.664;2023-11-18T14:58:34;97426.28;;;3.97;100.00
25130;BME280;13308;50.860;13.664;2023-11-18T15:01:01;97424.50;;;3.85;100.00
25130;BME280;13308;50.860;13.664;2023-11-18T15:03:26;97425.44;;;3.74;100.00
25130;BME280;13308;50.860;13.664;2023-11-18T15:05:52;97420.06;;;3.58;100.00
25130;BME280;13308;50.860;13.664;2023-11-18T15:08:17;97412.81;;;3.47;100.00
25130;BME280;13308;50.860;13.664;2023-11-18T15:10:43;97421.13;;;3.35;100.00
25130;BME280;13308;50.860;13.664;2023-11-18T15:13:10;97431.00;;;3.24;100.00
25130;BME280;13308;50.860;13.664;2023-11-18T15:15:40;97437.78;;;3.14;100.00
25130;BME280;13308;50.860;13.664;2023-11-18T15:18:07;97437.38;;;2.97;100.00
25130;BME280;13308;50.860;13.664;2023-11-18T15:20:35;97442.50;;;2.83;100.00
25130;BME280;13308;50.860;13.664;2023-11-18T15:23:02;97440.22;;;2.69;100.00
25130;BME280;13308;50.860;13.664;2023-11-18T15:25:27;97430.22;;;2.58;100.00
25130;BME280;13308;50.860;13.664;2023-11-18T15:27:53;97417.47;;;2.46;100.00
25130;BME280;13308;50.860;13.664;2023-11-18T15:30:18;97414.91;;;2.38;100.00
25130;BME280;13308;50.860;13.664;2023-11-18T15:32:45;97407.81;;;2.33;100.00
25130;BME280;13308;50.860;13.664;2023-11-18T15:35:11;97400.19;;;2.23;100.00
25130;BME280;13308;50.860;13.664;2023-11-18T15:37:39;97392.28;;;2.18;100.00
25130;BME280;13308;50.860;13.664;2023-11-18T15:40:10;97384.28;;;2.10;100.00
25130;BME280;13308;50.860;13.664;2023-11-18T15:42:43;97375.47;;;2.01;100.00
25130;BME280;13308;50.860;13.664;2023-11-18T15:45:14;97371.91;;;1.97;100.00
25130;BME280;13308;50.860;13.664;2023-11-18T15:47:40;97379.09;;;2.05;100.00
25130;BME280;13308;50.860;13.664;2023-11-18T15:50:08;97375.16;;;2.02;100.00
25130;BME280;13308;50.860;13.664;2023-11-18T15:52:40;97373.47;;;1.98;100.00
25130;BME280;13308;50.860;13.664;2023-11-18T15:55:06;97369.63;;;1.99;100.00
25130;BME280;13308;50.860;13.664;2023-11-18T15:57:38;97361.03;;;1.97;100.00
25130;BME280;13308;50.860;13.664;2023-11-18T16:00:08;97362.59;;;1.98;100.00
25130;BME280;13308;50.860;13.664;2023-11-18T16:02:46;97361.78;;;1.97;100.00
25130;BME280;13308;50.860;13.664;2023-11-18T16:05:14;97367.94;;;1.94;100.00
25130;BME280;13308;50.860;13.664;2023-11-18T16:07:51;97374.78;;;1.88;100.00
25130;BME280;13308;50.860;13.664;2023-11-18T16:10:18;97374.69;;;1.85;100.00
25130;BME280;13308;50.860;13.664;2023-11-18T16:12:57;97367.56;;;1.80;100.00
25130;BME280;13308;50.860;13.664;2023-11-18T16:15:27;97365.97;;;1.79;100.00
25130;BME280;13308;50.860;13.664;2023-11-18T16:17:57;97360.88;;;1.78;100.00
25130;BME280;13308;50.860;13.664;2023-11-18T16:20:24;97343.25;;;1.72;100.00
25130;BME280;13308;50.860;13.664;2023-11-18T16:22:52;97326.50;;;1.70;100.00
25130;BME280;13308;50.860;13.664;2023-11-18T16:25:22;97325.97;;;1.64;100.00
25130;BME280;13308;50.860;13.664;2023-11-18T16:27:49;97330.53;;;1.60;100.00
25130;BME280;13308;50.860;13.664;2023-11-18T16:30:16;97315.00;;;1.61;100.00
25130;BME280;13308;50.860;13.664;2023-11-18T16:32:42;97326.13;;;1.56;100.00
25130;BME280;13308;50.860;13.664;2023-11-18T16:35:08;97318.75;;;1.56;100.00
25130;BME280;13308;50.860;13.664;2023-11-18T16:37:40;97326.81;;;1.53;100.00
25130;BME280;13308;50.860;13.664;2023-11-18T16:40:07;97332.50;;;1.48;100.00
25130;BME280;13308;50.860;13.664;2023-11-18T16:42:36;97332.16;;;1.49;100.00
25130;BME280;13308;50.860;13.664;2023-11-18T16:45:02;97328.44;;;1.42;100.00
25130;BME280;13308;50.860;13.664;2023-11-18T16:47:28;97329.69;;;1.44;100.00
25130;BME280;13308;50.860;13.664;2023-11-18T16:49:53;97322.91;;;1.38;100.00
25130;BME280;13308;50.860;13.664;2023-11-18T16:52:19;97326.69;;;1.34;100.00
25130;BME280;13308;50.860;13.664;2023-11-18T16:54:46;97318.78;;;1.29;100.00
25130;BME280;13308;50.860;13.664;2023-11-18T16:57:11;97314.94;;;1.30;100.00
25130;BME280;13308;50.860;13.664;2023-11-18T16:59:36;97315.47;;;1.35;100.00
25130;BME280;13308;50.860;13.664;2023-11-18T17:02:02;97319.88;;;1.40;100.00
25130;BME280;13308;50.860;13.664;2023-11-18T17:04:27;97311.28;;;1.38;100.00
25130;BME280;13308;50.860;13.664;2023-11-18T17:06:52;97314.44;;;1.40;100.00
25130;BME280;13308;50.860;13.664;2023-11-18T17:09:18;97319.19;;;1.43;100.00
25130;BME280;13308;50.860;13.664;2023-11-18T17:11:47;97321.63;;;1.48;100.00
25130;BME280;13308;50.860;13.664;2023-11-18T17:14:13;97315.44;;;1.47;100.00
25130;BME280;13308;50.860;13.664;2023-11-18T17:16:40;97315.44;;;1.47;100.00
25130;BME280;13308;50.860;13.664;2023-11-18T17:19:08;97307.78;;;1.53;100.00
25130;BME280;13308;50.860;13.664;2023-11-18T17:21:34;97296.66;;;1.58;100.00
25130;BME280;13308;50.860;13.664;2023-11-18T17:23:59;97293.97;;;1.58;100.00
25130;BME280;13308;50.860;13.664;2023-11-18T17:26:25;97288.28;;;1.63;100.00
25130;BME280;13308;50.860;13.664;2023-11-18T17:28:52;97298.09;;;1.67;100.00
25130;BME280;13308;50.860;13.664;2023-11-18T17:31:17;97295.19;;;1.76;100.00
25130;BME280;13308;50.860;13.664;2023-11-18T17:33:43;97294.69;;;1.86;100.00
25130;BME280;13308;50.860;13.664;2023-11-18T17:36:08;97304.00;;;2.00;100.00
25130;BME280;13308;50.860;13.664;2023-11-18T17:38:33;97295.03;;;2.15;100.00
25130;BME280;13308;50.860;13.664;2023-11-18T17:41:01;97296.69;;;2.35;100.00
25130;BME280;13308;50.860;13.664;2023-11-18T17:43:26;97291.28;;;2.54;100.00
25130;BME280;13308;50.860;13.664;2023-11-18T17:45:52;97289.34;;;2.55;100.00
25130;BME280;13308;50.860;13.664;2023-11-18T17:48:19;97275.59;;;2.67;100.00
25130;BME280;13308;50.860;13.664;2023-11-18T17:50:45;97266.59;;;2.63;100.00
25130;BME280;13308;50.860;13.664;2023-11-18T17:53:10;97261.72;;;2.72;100.00
25130;BME280;13308;50.860;13.664;2023-11-18T17:55:36;97262.75;;;2.83;100.00
25130;BME280;13308;50.860;13.664;2023-11-18T17:58:01;97257.28;;;2.83;100.00
25130;BME280;13308;50.860;13.664;2023-11-18T18:00:27;97254.16;;;2.81;100.00
25130;BME280;13308;50.860;13.664;2023-11-18T18:02:53;97248.97;;;2.95;100.00
25130;BME280;13308;50.860;13.664;2023-11-18T18:05:18;97259.75;;;2.88;100.00
25130;BME280;13308;50.860;13.664;2023-11-18T18:07:43;97251.78;;;2.98;100.00
25130;BME280;13308;50.860;13.664;2023-11-18T18:10:10;97247.41;;;3.13;100.00
25130;BME280;13308;50.860;13.664;2023-11-18T18:12:38;97240.28;;;3.27;100.00
25130;BME280;13308;50.860;13.664;2023-11-18T18:15:07;97231.09;;;3.35;100.00
25130;BME280;13308;50.860;13.664;2023-11-18T18:17:37;97224.19;;;3.41;100.00
25130;BME280;13308;50.860;13.664;2023-11-18T18:20:06;97212.50;;;3.41;100.00
25130;BME280;13308;50.860;13.664;2023-11-18T18:22:38;97214.19;;;3.49;100.00
25130;BME280;13308;50.860;13.664;2023-11-18T18:25:03;97221.63;;;3.48;100.00
25130;BME280;13308;50.860;13.664;2023-11-18T18:27:29;97207.19;;;3.48;100.00
25130;BME280;13308;50.860;13.664;2023-11-18T18:29:58;97193.97;;;3.50;100.00
25130;BME280;13308;50.860;13.664;2023-11-18T18:32:23;97190.94;;;3.55;100.00
25130;BME280;13308;50.860;13.664;2023-11-18T18:34:49;97199.69;;;3.64;100.00
25130;BME280;13308;50.860;13.664;2023-11-18T18:37:17;97189.47;;;3.61;100.00
25130;BME280;13308;50.860;13.664;2023-11-18T18:39:42;97187.16;;;3.63;100.00
25130;BME280;13308;50.860;13.664;2023-11-18T18:42:07;97172.56;;;3.74;100.00
25130;BME280;13308;50.860;13.664;2023-11-18T18:44:33;97179.53;;;3.72;100.00
25130;BME280;13308;50.860;13.664;2023-11-18T18:46:58;97177.19;;;3.70;100.00
25130;BME280;13308;50.860;13.664;2023-11-18T18:49:24;97161.72;;;3.78;100.00
25130;BME280;13308;50.860;13.664;2023-11-18T18:51:49;97166.75;;;3.76;100.00
25130;BME280;13308;50.860;13.664;2023-11-18T18:54:16;97178.09;;;3.78;100.00
25130;BME280;13308;50.860;13.664;2023-11-18T18:56:42;97176.94;;;3.79;100.00
25130;BME280;13308;50.860;13.664;2023-11-18T18:59:07;97165.16;;;3.75;100.00
25130;BME280;13308;50.860;13.664;2023-11-18T19:01:39;97148.50;;;3.80;100.00
25130;BME280;13308;50.860;13.664;2023-11-18T19:04:05;97146.97;;;3.82;100.00
25130;BME280;13308;50.860;13.664;2023-11-18T19:06:30;97149.34;;;3.84;100.00
25130;BME280;13308;50.860;13.664;2023-11-18T19:08:58;97151.75;;;3.89;100.00
25130;BME280;13308;50.860;13.664;2023-11-18T19:11:25;97141.22;;;3.87;100.00
25130;BME280;13308;50.860;13.664;2023-11-18T19:13:50;97153.75;;;3.92;100.00
25130;BME280;13308;50.860;13.664;2023-11-18T19:16:16;97144.03;;;3.94;100.00
25130;BME280;13308;50.860;13.664;2023-11-18T19:18:41;97128.47;;;3.95;100.00
25130;BME280;13308;50.860;13.664;2023-11-18T19:21:06;97137.81;;;3.94;100.00
25130;BME280;13308;50.860;13.664;2023-11-18T19:23:34;97128.47;;;3.95;100.00
25130;BME280;13308;50.860;13.664;2023-11-18T19:25:59;97125.34;;;3.93;100.00
25130;BME280;13308;50.860;13.664;2023-11-18T19:28:25;97101.28;;;4.02;100.00
25130;BME280;13308;50.860;13.664;2023-11-18T19:30:50;97112.09;;;3.95;100.00
25130;BME280;13308;50.860;13.664;2023-11-18T19:33:15;97114.50;;;4.00;100.00
